sensor_id;sensor_type;location;lat;lon;timestamp;P1;durP1;ratioP1;P2;durP2;ratioP2
16387;SDS011;8303;53.446;9.988;2022-08-03T04:47:44;9.60;;;7.97;;
16387;SDS011;8303;53.446;9.988;2022-08-03T04:50:11;9.55;;;8.70;;
16387;SDS011;8303;53.446;9.988;2022-08-03T04:52:39;10.02;;;9.10;;
16387;SDS011;8303;53.446;9.988;2022-08-03T04:55:06;10.50;;;8.77;;
16387;SDS011;8303;53.446;9.988;2022-08-03T04:57:34;11.02;;;9.80;;
16387;SDS011;8303;53.446;9.988;2022-08-03T05:00:02;9.05;;;8.25;;
16387;SDS011;8303;53.446;9.988;2022-08-03T05:02:30;10.90;;;10.00;;
16387;SDS011;8303;53.446;9.988;2022-08-03T05:05:00;10.25;;;9.43;;
16387;SDS011;8303;53.446;9.988;2022-08-03T05:07:28;11.85;;;10.60;;
16387;SDS011;8303;53.446;9.988;2022-08-03T05:09:55;10.80;;;9.43;;
16387;SDS011;8303;53.446;9.988;2022-08-03T05:12:22;9.68;;;8.93;;
16387;SDS011;8303;53.446;9.988;2022-08-03T05:14:49;10.57;;;9.13;;
16387;SDS011;8303;53.446;9.988;2022-08-03T05:17:16;10.88;;;9.98;;
16387;SDS011;8303;53.446;9.988;2022-08-03T05:19:43;11.50;;;10.35;;
16387;SDS011;8303;53.446;9.988;2022-08-03T05:22:12;11.13;;;10.27;;
16387;SDS011;8303;53.446;9.988;2022-08-03T05:24:39;11.23;;;10.43;;
16387;SDS011;8303;53.446;9.988;2022-08-03T05:27:06;10.75;;;9.93;;
16387;SDS011;8303;53.446;9.988;2022-08-03T05:29:33;11.75;;;10.85;;
16387;SDS011;8303;53.446;9.988;2022-08-03T05:32:00;12.52;;;11.63;;
16387;SDS011;8303;53.446;9.988;2022-08-03T05:34:27;14.48;;;13.43;;
16387;SDS011;8303;53.446;9.988;2022-08-03T05:36:56;13.75;;;12.75;;
16387;SDS011;8303;53.446;9.988;2022-08-03T05:39:24;16.17;;;12.57;;
16387;SDS011;8303;53.446;9.988;2022-08-03T05:41:51;14.45;;;13.45;;
16387;SDS011;8303;53.446;9.988;2022-08-03T05:44:19;14.73;;;13.70;;
16387;SDS011;8303;53.446;9.988;2022-08-03T05:46:50;14.68;;;13.57;;
16387;SDS011;8303;53.446;9.988;2022-08-03T05:49:17;15.13;;;14.02;;
16387;SDS011;8303;53.446;9.988;2022-08-03T05:51:44;16.30;;;15.10;;
16387;SDS011;8303;53.446;9.988;2022-08-03T05:54:12;14.98;;;13.82;;
16387;SDS011;8303;53.446;9.988;2022-08-03T05:56:40;15.07;;;13.90;;
16387;SDS011;8303;53.446;9.988;2022-08-03T05:59:07;12.27;;;11.23;;
16387;SDS011;8303;53.446;9.988;2022-08-03T06:01:34;14.00;;;13.00;;
16387;SDS011;8303;53.446;9.988;2022-08-03T06:04:01;11.60;;;10.63;;
16387;SDS011;8303;53.446;9.988;2022-08-03T06:06:29;13.25;;;12.15;;
16387;SDS011;8303;53.446;9.988;2022-08-03T06:08:56;9.70;;;8.80;;
16387;SDS011;8303;53.446;9.988;2022-08-03T06:11:23;9.93;;;9.23;;
16387;SDS011;8303;53.446;9.988;2022-08-03T06:13:52;12.30;;;11.35;;
16387;SDS011;8303;53.446;9.988;2022-08-03T06:16:19;9.43;;;8.63;;
16387;SDS011;8303;53.446;9.988;2022-08-03T06:18:46;8.13;;;7.50;;
16387;SDS011;8303;53.446;9.988;2022-08-03T06:21:13;6.82;;;5.65;;
16387;SDS011;8303;53.446;9.988;2022-08-03T06:23:40;8.57;;;6.38;;
16387;SDS011;8303;53.446;9.988;2022-08-03T06:26:08;7.38;;;6.78;;
16387;SDS011;8303;53.446;9.988;2022-08-03T06:28:35;8.05;;;5.63;;
16387;SDS011;8303;53.446;9.988;2022-08-03T06:31:03;5.78;;;4.88;;
16387;SDS011;8303;53.446;9.988;2022-08-03T06:33:30;6.38;;;5.68;;
16387;SDS011;8303;53.446;9.988;2022-08-03T06:35:58;7.90;;;5.28;;
16387;SDS011;8303;53.446;9.988;2022-08-03T06:38:25;6.75;;;5.47;;
16387;SDS011;8303;53.446;9.988;2022-08-03T06:40:58;7.55;;;5.80;;
16387;SDS011;8303;53.446;9.988;2022-08-03T06:43:25;8.82;;;5.65;;
16387;SDS011;8303;53.446;9.988;2022-08-03T06:45:52;6.15;;;5.38;;
16387;SDS011;8303;53.446;9.988;2022-08-03T06:48:20;5.72;;;5.25;;
16387;SDS011;8303;53.446;9.988;2022-08-03T06:50:47;5.53;;;5.07;;
16387;SDS011;8303;53.446;9.988;2022-08-03T06:53:15;6.00;;;5.50;;
16387;SDS011;8303;53.446;9.988;2022-08-03T06:55:41;5.85;;;5.28;;
16387;SDS011;8303;53.446;9.988;2022-08-03T06:58:09;6.20;;;5.28;;
16387;SDS011;8303;53.446;9.988;2022-08-03T07:00:36;6.30;;;5.57;;
16387;SDS011;8303;53.446;9.988;2022-08-03T07:03:03;6.50;;;5.90;;
16387;SDS011;8303;53.446;9.988;2022-08-03T07:05:32;6.05;;;5.50;;
16387;SDS011;8303;53.446;9.988;2022-08-03T07:08:02;11.98;;;5.78;;
16387;SDS011;8303;53.446;9.988;2022-08-03T07:10:30;5.88;;;5.30;;
16387;SDS011;8303;53.446;9.988;2022-08-03T07:12:57;6.50;;;5.28;;
16387;SDS011;8303;53.446;9.988;2022-08-03T07:15:24;7.35;;;5.38;;
16387;SDS011;8303;53.446;9.988;2022-08-03T07:17:51;7.32;;;5.88;;
16387;SDS011;8303;53.446;9.988;2022-08-03T07:20:18;6.85;;;6.22;;
16387;SDS011;8303;53.446;9.988;2022-08-03T07:22:47;6.55;;;5.28;;
16387;SDS011;8303;53.446;9.988;2022-08-03T07:25:18;6.53;;;5.93;;
16387;SDS011;8303;53.446;9.988;2022-08-03T07:27:47;10.00;;;6.45;;
16387;SDS011;8303;53.446;9.988;2022-08-03T07:30:14;6.65;;;5.72;;
16387;SDS011;8303;53.446;9.988;2022-08-03T07:32:42;6.82;;;6.10;;
16387;SDS011;8303;53.446;9.988;2022-08-03T07:35:12;6.30;;;5.70;;
16387;SDS011;8303;53.446;9.988;2022-08-03T07:37:39;7.88;;;6.38;;
16387;SDS011;8303;53.446;9.988;2022-08-03T07:40:08;6.72;;;6.10;;
16387;SDS011;8303;53.446;9.988;2022-08-03T07:42:35;7.22;;;6.25;;
16387;SDS011;8303;53.446;9.988;2022-08-03T07:45:03;8.38;;;6.28;;
16387;SDS011;8303;53.446;9.988;2022-08-03T07:47:33;10.50;;;6.43;;
16387;SDS011;8303;53.446;9.988;2022-08-03T07:50:00;6.38;;;5.88;;
16387;SDS011;8303;53.446;9.988;2022-08-03T07:52:27;6.55;;;5.93;;
16387;SDS011;8303;53.446;9.988;2022-08-03T07:55:14;5.93;;;5.53;;
16387;SDS011;8303;53.446;9.988;2022-08-03T07:57:41;7.20;;;6.10;;
16387;SDS011;8303;53.446;9.988;2022-08-03T08:00:12;8.27;;;7.65;;
16387;SDS011;8303;53.446;9.988;2022-08-03T08:02:41;8.02;;;7.47;;
16387;SDS011;8303;53.446;9.988;2022-08-03T08:05:09;10.07;;;9.27;;
16387;SDS011;8303;53.446;9.988;2022-08-03T08:07:38;9.93;;;9.23;;
16387;SDS011;8303;53.446;9.988;2022-08-03T08:10:07;8.05;;;7.45;;
16387;SDS011;8303;53.446;9.988;2022-08-03T08:12:37;10.52;;;9.82;;
16387;SDS011;8303;53.446;9.988;2022-08-03T08:15:05;11.85;;;11.15;;
16387;SDS011;8303;53.446;9.988;2022-08-03T08:17:42;10.15;;;9.25;;
16387;SDS011;8303;53.446;9.988;2022-08-03T08:20:11;10.32;;;9.60;;
16387;SDS011;8303;53.446;9.988;2022-08-03T08:22:41;10.25;;;9.38;;
16387;SDS011;8303;53.446;9.988;2022-08-03T08:25:09;9.88;;;8.05;;
16387;SDS011;8303;53.446;9.988;2022-08-03T08:27:42;8.70;;;8.07;;
16387;SDS011;8303;53.446;9.988;2022-08-03T08:30:10;9.40;;;8.77;;
16387;SDS011;8303;53.446;9.988;2022-08-03T08:32:38;12.57;;;11.48;;
16387;SDS011;8303;53.446;9.988;2022-08-03T08:35:09;11.27;;;10.23;;
16387;SDS011;8303;53.446;9.988;2022-08-03T08:37:36;9.57;;;8.00;;
16387;SDS011;8303;53.446;9.988;2022-08-03T08:40:05;10.75;;;10.02;;
16387;SDS011;8303;53.446;9.988;2022-08-03T08:42:33;11.57;;;10.82;;
16387;SDS011;8303;53.446;9.988;2022-08-03T08:45:07;14.65;;;13.82;;
16387;SDS011;8303;53.446;9.988;2022-08-03T08:47:36;12.35;;;11.13;;
16387;SDS011;8303;53.446;9.988;2022-08-03T08:50:05;15.05;;;13.65;;
16387;SDS011;8303;53.446;9.988;2022-08-03T08:52:33;15.02;;;14.13;;
16387;SDS011;8303;53.446;9.988;2022-08-03T08:55:02;11.57;;;10.68;;
16387;SDS011;8303;53.446;9.988;2022-08-03T08:57:32;20.73;;;19.25;;
16387;SDS011;8303;53.446;9.988;2022-08-03T09:00:03;17.00;;;15.90;;
16387;SDS011;8303;53.446;9.988;2022-08-03T09:02:33;21.50;;;20.08;;
16387;SDS011;8303;53.446;9.988;2022-08-03T09:05:03;16.55;;;15.55;;
16387;SDS011;8303;53.446;9.988;2022-08-03T09:07:31;18.38;;;16.70;;
16387;SDS011;8303;53.446;9.988;2022-08-03T09:09:58;13.27;;;12.48;;
16387;SDS011;8303;53.446;9.988;2022-08-03T09:12:25;14.32;;;13.32;;
16387;SDS011;8303;53.446;9.988;2022-08-03T09:14:53;26.10;;;24.50;;
16387;SDS011;8303;53.446;9.988;2022-08-03T09:17:23;24.90;;;23.20;;
16387;SDS011;8303;53.446;9.988;2022-08-03T09:20:03;26.23;;;24.45;;
16387;SDS011;8303;53.446;9.988;2022-08-03T09:22:33;23.70;;;22.08;;
16387;SDS011;8303;53.446;9.988;2022-08-03T09:25:01;23.33;;;21.52;;
16387;SDS011;8303;53.446;9.988;2022-08-03T09:27:30;27.25;;;25.38;;
16387;SDS011;8303;53.446;9.988;2022-08-03T09:30:11;29.08;;;27.23;;
16387;SDS011;8303;53.446;9.988;2022-08-03T09:32:40;24.80;;;23.38;;
16387;SDS011;8303;53.446;9.988;2022-08-03T09:35:10;26.40;;;24.58;;
16387;SDS011;8303;53.446;9.988;2022-08-03T09:37:38;23.05;;;21.75;;
16387;SDS011;8303;53.446;9.988;2022-08-03T09:40:08;28.42;;;26.63;;
16387;SDS011;8303;53.446;9.988;2022-08-03T09:42:35;26.13;;;24.42;;
16387;SDS011;8303;53.446;9.988;2022-08-03T09:45:24;25.23;;;23.73;;
16387;SDS011;8303;53.446;9.988;2022-08-03T09:47:56;26.75;;;25.00;;
16387;SDS011;8303;53.446;9.988;2022-08-03T09:50:25;31.67;;;29.73;;
16387;SDS011;8303;53.446;9.988;2022-08-03T09:52:52;30.20;;;28.50;;
16387;SDS011;8303;53.446;9.988;2022-08-03T09:55:19;28.88;;;26.98;;
16387;SDS011;8303;53.446;9.988;2022-08-03T09:57:49;35.05;;;33.05;;
16387;SDS011;8303;53.446;9.988;2022-08-03T10:00:16;28.77;;;26.88;;
16387;SDS011;8303;53.446;9.988;2022-08-03T10:02:44;29.98;;;27.77;;
16387;SDS011;8303;53.446;9.988;2022-08-03T10:05:12;26.67;;;25.15;;
16387;SDS011;8303;53.446;9.988;2022-08-03T10:07:44;35.92;;;33.70;;
16387;SDS011;8303;53.446;9.988;2022-08-03T10:10:12;28.88;;;27.10;;
16387;SDS011;8303;53.446;9.988;2022-08-03T10:12:40;30.23;;;28.08;;
16387;SDS011;8303;53.446;9.988;2022-08-03T10:15:08;36.15;;;33.80;;
16387;SDS011;8303;53.446;9.988;2022-08-03T10:17:36;33.33;;;31.23;;
16387;SDS011;8303;53.446;9.988;2022-08-03T10:20:05;34.22;;;32.28;;
16387;SDS011;8303;53.446;9.988;2022-08-03T10:22:33;33.53;;;30.60;;
16387;SDS011;8303;53.446;9.988;2022-08-03T10:25:05;34.22;;;32.30;;
16387;SDS011;8303;53.446;9.988;2022-08-03T10:27:34;31.55;;;29.65;;
16387;SDS011;8303;53.446;9.988;2022-08-03T10:30:04;33.85;;;31.77;;
16387;SDS011;8303;53.446;9.988;2022-08-03T10:32:34;32.95;;;30.85;;
16387;SDS011;8303;53.446;9.988;2022-08-03T10:35:07;87.75;;;82.45;;
16387;SDS011;8303;53.446;9.988;2022-08-03T10:37:39;34.83;;;32.70;;
16387;SDS011;8303;53.446;9.988;2022-08-03T10:40:11;36.30;;;34.25;;
16387;SDS011;8303;53.446;9.988;2022-08-03T10:42:44;39.50;;;37.28;;
16387;SDS011;8303;53.446;9.988;2022-08-03T10:45:18;31.70;;;29.83;;
16387;SDS011;8303;53.446;9.988;2022-08-03T10:47:55;35.85;;;33.75;;
16387;SDS011;8303;53.446;9.988;2022-08-03T10:50:24;34.35;;;32.38;;
16387;SDS011;8303;53.446;9.988;2022-08-03T10:52:57;33.47;;;31.50;;
16387;SDS011;8303;53.446;9.988;2022-08-03T10:55:32;34.60;;;32.58;;
16387;SDS011;8303;53.446;9.988;2022-08-03T11:01:11;44.95;;;42.08;;
16387;SDS011;8303;53.446;9.988;2022-08-03T11:06:42;63.40;;;59.90;;
16387;SDS011;8303;53.446;9.988;2022-08-03T11:09:13;51.70;;;48.58;;
16387;SDS011;8303;53.446;9.988;2022-08-03T11:11:47;77.68;;;73.10;;
16387;SDS011;8303;53.446;9.988;2022-08-03T11:14:16;59.75;;;56.08;;
16387;SDS011;8303;53.446;9.988;2022-08-03T11:16:45;54.50;;;51.45;;
16387;SDS011;8303;53.446;9.988;2022-08-03T11:19:14;98.32;;;92.95;;
16387;SDS011;8303;53.446;9.988;2022-08-03T11:21:56;95.65;;;90.60;;
16387;SDS011;8303;53.446;9.988;2022-08-03T11:27:32;109.75;;;104.07;;
16387;SDS011;8303;53.446;9.988;2022-08-03T11:30:03;97.10;;;91.88;;
16387;SDS011;8303;53.446;9.988;2022-08-03T11:32:53;110.30;;;104.68;;
16387;SDS011;8303;53.446;9.988;2022-08-03T11:35:24;113.93;;;108.05;;
16387;SDS011;8303;53.446;9.988;2022-08-03T11:38:02;123.70;;;117.30;;
16387;SDS011;8303;53.446;9.988;2022-08-03T11:40:33;126.30;;;119.50;;
16387;SDS011;8303;53.446;9.988;2022-08-03T11:43:06;118.38;;;112.07;;
16387;SDS011;8303;53.446;9.988;2022-08-03T11:45:34;120.65;;;114.43;;
16387;SDS011;8303;53.446;9.988;2022-08-03T11:48:11;113.50;;;107.05;;
16387;SDS011;8303;53.446;9.988;2022-08-03T11:50:40;118.07;;;111.97;;
16387;SDS011;8303;53.446;9.988;2022-08-03T11:53:15;121.57;;;115.22;;
16387;SDS011;8303;53.446;9.988;2022-08-03T11:55:45;119.85;;;113.40;;
16387;SDS011;8303;53.446;9.988;2022-08-03T11:58:21;120.88;;;114.63;;
16387;SDS011;8303;53.446;9.988;2022-08-03T12:00:49;98.28;;;92.97;;
16387;SDS011;8303;53.446;9.988;2022-08-03T12:03:17;102.15;;;96.63;;
16387;SDS011;8303;53.446;9.988;2022-08-03T12:05:49;120.70;;;114.53;;
16387;SDS011;8303;53.446;9.988;2022-08-03T12:08:18;117.85;;;111.53;;
16387;SDS011;8303;53.446;9.988;2022-08-03T12:10:58;107.03;;;101.35;;
16387;SDS011;8303;53.446;9.988;2022-08-03T12:13:39;107.00;;;101.20;;
16387;SDS011;8303;53.446;9.988;2022-08-03T12:16:08;94.30;;;88.97;;
16387;SDS011;8303;53.446;9.988;2022-08-03T12:18:36;106.97;;;101.28;;
16387;SDS011;8303;53.446;9.988;2022-08-03T12:21:04;102.72;;;96.95;;
16387;SDS011;8303;53.446;9.988;2022-08-03T12:23:33;92.63;;;87.65;;
16387;SDS011;8303;53.446;9.988;2022-08-03T12:26:01;103.10;;;97.68;;
16387;SDS011;8303;53.446;9.988;2022-08-03T12:28:29;97.85;;;92.10;;
16387;SDS011;8303;53.446;9.988;2022-08-03T12:31:01;94.63;;;89.47;;
16387;SDS011;8303;53.446;9.988;2022-08-03T12:33:30;104.82;;;99.38;;
16387;SDS011;8303;53.446;9.988;2022-08-03T12:36:03;93.40;;;88.35;;
16387;SDS011;8303;53.446;9.988;2022-08-03T12:38:32;117.55;;;111.38;;
16387;SDS011;8303;53.446;9.988;2022-08-03T12:41:04;111.07;;;105.30;;
16387;SDS011;8303;53.446;9.988;2022-08-03T12:43:32;97.22;;;91.93;;
16387;SDS011;8303;53.446;9.988;2022-08-03T12:46:14;98.03;;;92.85;;
16387;SDS011;8303;53.446;9.988;2022-08-03T12:49:02;102.45;;;96.57;;
16387;SDS011;8303;53.446;9.988;2022-08-03T12:51:31;119.97;;;113.57;;
16387;SDS011;8303;53.446;9.988;2022-08-03T12:54:00;108.65;;;102.55;;
16387;SDS011;8303;53.446;9.988;2022-08-03T12:56:28;116.93;;;110.68;;
16387;SDS011;8303;53.446;9.988;2022-08-03T12:58:55;111.68;;;105.90;;
16387;SDS011;8303;53.446;9.988;2022-08-03T13:01:24;139.38;;;132.35;;
16387;SDS011;8303;53.446;9.988;2022-08-03T13:03:54;97.38;;;92.10;;
16387;SDS011;8303;53.446;9.988;2022-08-03T13:06:21;95.72;;;90.75;;
16387;SDS011;8303;53.446;9.988;2022-08-03T13:09:00;142.48;;;135.23;;
16387;SDS011;8303;53.446;9.988;2022-08-03T13:11:29;114.03;;;108.10;;
16387;SDS011;8303;53.446;9.988;2022-08-03T13:13:56;114.10;;;108.10;;
16387;SDS011;8303;53.446;9.988;2022-08-03T13:16:26;128.52;;;122.05;;
16387;SDS011;8303;53.446;9.988;2022-08-03T13:18:55;146.95;;;139.30;;
16387;SDS011;8303;53.446;9.988;2022-08-03T13:21:22;136.32;;;129.32;;
16387;SDS011;8303;53.446;9.988;2022-08-03T13:23:49;145.35;;;137.57;;
16387;SDS011;8303;53.446;9.988;2022-08-03T13:26:19;150.43;;;142.23;;
16387;SDS011;8303;53.446;9.988;2022-08-03T13:28:46;134.82;;;127.72;;
16387;SDS011;8303;53.446;9.988;2022-08-03T13:31:14;160.38;;;151.90;;
16387;SDS011;8303;53.446;9.988;2022-08-03T13:33:43;167.82;;;159.07;;
16387;SDS011;8303;53.446;9.988;2022-08-03T13:36:10;176.93;;;167.88;;
16387;SDS011;8303;53.446;9.988;2022-08-03T13:38:37;144.57;;;137.13;;
16387;SDS011;8303;53.446;9.988;2022-08-03T13:41:04;109.95;;;104.25;;
16387;SDS011;8303;53.446;9.988;2022-08-03T13:43:31;169.68;;;160.60;;
16387;SDS011;8303;53.446;9.988;2022-08-03T13:45:59;145.65;;;137.55;;
16387;SDS011;8303;53.446;9.988;2022-08-03T13:48:26;174.25;;;165.20;;
16387;SDS011;8303;53.446;9.988;2022-08-03T13:50:55;164.65;;;155.45;;
16387;SDS011;8303;53.446;9.988;2022-08-03T13:53:24;165.05;;;156.57;;
16387;SDS011;8303;53.446;9.988;2022-08-03T13:55:51;183.23;;;173.70;;
16387;SDS011;8303;53.446;9.988;2022-08-03T13:58:18;151.90;;;143.93;;
16387;SDS011;8303;53.446;9.988;2022-08-03T14:00:46;141.57;;;134.02;;
16387;SDS011;8303;53.446;9.988;2022-08-03T14:03:13;166.85;;;158.20;;
16387;SDS011;8303;53.446;9.988;2022-08-03T14:05:41;146.60;;;138.82;;
16387;SDS011;8303;53.446;9.988;2022-08-03T14:08:13;96.90;;;91.65;;
16387;SDS011;8303;53.446;9.988;2022-08-03T14:10:41;103.22;;;97.85;;
16387;SDS011;8303;53.446;9.988;2022-08-03T14:13:10;94.95;;;89.32;;
16387;SDS011;8303;53.446;9.988;2022-08-03T14:15:39;98.70;;;93.47;;
16387;SDS011;8303;53.446;9.988;2022-08-03T14:18:07;88.20;;;83.40;;
16387;SDS011;8303;53.446;9.988;2022-08-03T14:20:35;87.00;;;82.40;;
16387;SDS011;8303;53.446;9.988;2022-08-03T14:23:03;63.55;;;59.75;;
16387;SDS011;8303;53.446;9.988;2022-08-03T14:25:34;76.53;;;71.95;;
16387;SDS011;8303;53.446;9.988;2022-08-03T14:28:03;61.75;;;58.22;;
16387;SDS011;8303;53.446;9.988;2022-08-03T14:30:43;27.00;;;25.23;;
16387;SDS011;8303;53.446;9.988;2022-08-03T14:33:16;16.23;;;15.00;;
16387;SDS011;8303;53.446;9.988;2022-08-03T14:36:08;16.95;;;15.60;;
16387;SDS011;8303;53.446;9.988;2022-08-03T14:38:38;18.92;;;17.63;;
16387;SDS011;8303;53.446;9.988;2022-08-03T14:41:09;23.80;;;22.40;;
16387;SDS011;8303;53.446;9.988;2022-08-03T14:43:50;24.05;;;22.50;;
16387;SDS011;8303;53.446;9.988;2022-08-03T14:46:17;33.70;;;31.45;;
16387;SDS011;8303;53.446;9.988;2022-08-03T14:48:47;28.05;;;26.35;;
16387;SDS011;8303;53.446;9.988;2022-08-03T14:51:16;37.05;;;34.70;;
16387;SDS011;8303;53.446;9.988;2022-08-03T14:53:47;42.75;;;40.10;;
16387;SDS011;8303;53.446;9.988;2022-08-03T14:56:15;51.47;;;48.35;;
16387;SDS011;8303;53.446;9.988;2022-08-03T14:58:42;50.38;;;47.58;;
16387;SDS011;8303;53.446;9.988;2022-08-03T15:01:13;43.38;;;40.72;;
16387;SDS011;8303;53.446;9.988;2022-08-03T15:03:40;29.38;;;27.48;;
16387;SDS011;8303;53.446;9.988;2022-08-03T15:06:08;31.15;;;29.17;;
16387;SDS011;8303;53.446;9.988;2022-08-03T15:08:35;23.25;;;21.55;;
16387;SDS011;8303;53.446;9.988;2022-08-03T15:11:02;17.30;;;16.10;;
16387;SDS011;8303;53.446;9.988;2022-08-03T15:13:32;14.77;;;13.90;;
16387;SDS011;8303;53.446;9.988;2022-08-03T15:15:59;13.18;;;12.38;;
16387;SDS011;8303;53.446;9.988;2022-08-03T15:18:26;13.43;;;12.30;;
16387;SDS011;8303;53.446;9.988;2022-08-03T15:20:55;16.58;;;15.52;;
16387;SDS011;8303;53.446;9.988;2022-08-03T15:23:22;16.17;;;15.18;;
16387;SDS011;8303;53.446;9.988;2022-08-03T15:25:50;19.23;;;18.00;;
16387;SDS011;8303;53.446;9.988;2022-08-03T15:28:17;27.65;;;25.75;;
16387;SDS011;8303;53.446;9.988;2022-08-03T15:30:51;30.58;;;28.65;;
16387;SDS011;8303;53.446;9.988;2022-08-03T15:33:18;28.27;;;26.58;;
16387;SDS011;8303;53.446;9.988;2022-08-03T15:35:46;25.45;;;23.75;;
16387;SDS011;8303;53.446;9.988;2022-08-03T15:38:14;27.35;;;25.73;;
16387;SDS011;8303;53.446;9.988;2022-08-03T15:40:41;20.08;;;18.58;;
16387;SDS011;8303;53.446;9.988;2022-08-03T15:43:08;19.08;;;17.63;;
16387;SDS011;8303;53.446;9.988;2022-08-03T15:45:35;22.23;;;20.42;;
16387;SDS011;8303;53.446;9.988;2022-08-03T15:48:06;31.20;;;29.33;;
16387;SDS011;8303;53.446;9.988;2022-08-03T15:50:33;60.85;;;57.53;;
16387;SDS011;8303;53.446;9.988;2022-08-03T15:53:00;68.60;;;64.63;;
16387;SDS011;8303;53.446;9.988;2022-08-03T15:55:33;68.50;;;64.80;;
16387;SDS011;8303;53.446;9.988;2022-08-03T15:58:00;84.30;;;79.68;;
16387;SDS011;8303;53.446;9.988;2022-08-03T16:00:28;101.95;;;96.57;;
16387;SDS011;8303;53.446;9.988;2022-08-03T16:02:55;129.95;;;123.15;;
16387;SDS011;8303;53.446;9.988;2022-08-03T16:05:24;119.35;;;113.00;;
16387;SDS011;8303;53.446;9.988;2022-08-03T16:07:51;105.55;;;100.05;;
16387;SDS011;8303;53.446;9.988;2022-08-03T16:10:19;106.70;;;101.03;;
16387;SDS011;8303;53.446;9.988;2022-08-03T16:12:47;107.13;;;101.47;;
16387;SDS011;8303;53.446;9.988;2022-08-03T16:15:14;113.65;;;107.57;;
16387;SDS011;8303;53.446;9.988;2022-08-03T16:17:42;143.15;;;135.52;;
16387;SDS011;8303;53.446;9.988;2022-08-03T16:20:09;128.73;;;121.65;;
16387;SDS011;8303;53.446;9.988;2022-08-03T16:22:42;109.18;;;103.43;;
16387;SDS011;8303;53.446;9.988;2022-08-03T16:25:13;106.28;;;100.47;;
16387;SDS011;8303;53.446;9.988;2022-08-03T16:27:42;96.40;;;91.10;;
16387;SDS011;8303;53.446;9.988;2022-08-03T16:30:10;102.75;;;96.85;;
16387;SDS011;8303;53.446;9.988;2022-08-03T16:32:39;94.53;;;89.60;;
16387;SDS011;8303;53.446;9.988;2022-08-03T16:35:06;88.68;;;83.90;;
16387;SDS011;8303;53.446;9.988;2022-08-03T16:37:34;99.20;;;93.70;;
16387;SDS011;8303;53.446;9.988;2022-08-03T16:40:03;93.63;;;88.65;;
16387;SDS011;8303;53.446;9.988;2022-08-03T16:42:33;93.40;;;88.22;;
16387;SDS011;8303;53.446;9.988;2022-08-03T16:45:04;83.40;;;78.82;;
16387;SDS011;8303;53.446;9.988;2022-08-03T16:47:37;80.78;;;76.20;;
16387;SDS011;8303;53.446;9.988;2022-08-03T16:50:05;68.78;;;64.45;;
16387;SDS011;8303;53.446;9.988;2022-08-03T16:52:32;81.70;;;77.32;;
16387;SDS011;8303;53.446;9.988;2022-08-03T16:55:00;78.18;;;73.95;;
16387;SDS011;8303;53.446;9.988;2022-08-03T16:57:29;88.75;;;83.57;;
16387;SDS011;8303;53.446;9.988;2022-08-03T16:59:56;92.03;;;87.18;;
16387;SDS011;8303;53.446;9.988;2022-08-03T17:02:25;106.55;;;100.93;;
16387;SDS011;8303;53.446;9.988;2022-08-03T17:04:52;104.22;;;98.50;;
16387;SDS011;8303;53.446;9.988;2022-08-03T17:07:22;124.00;;;117.50;;
16387;SDS011;8303;53.446;9.988;2022-08-03T17:09:49;121.20;;;114.75;;
16387;SDS011;8303;53.446;9.988;2022-08-03T17:12:17;121.10;;;114.75;;
16387;SDS011;8303;53.446;9.988;2022-08-03T17:14:44;112.38;;;106.30;;
16387;SDS011;8303;53.446;9.988;2022-08-03T17:17:13;104.43;;;98.82;;
16387;SDS011;8303;53.446;9.988;2022-08-03T17:19:41;80.53;;;76.13;;
16387;SDS011;8303;53.446;9.988;2022-08-03T17:22:10;32.40;;;30.25;;
16387;SDS011;8303;53.446;9.988;2022-08-03T17:24:38;52.53;;;49.22;;
16387;SDS011;8303;53.446;9.988;2022-08-03T17:27:12;41.28;;;38.97;;
16387;SDS011;8303;53.446;9.988;2022-08-03T17:29:44;33.83;;;31.60;;
16387;SDS011;8303;53.446;9.988;2022-08-03T17:32:13;48.83;;;46.05;;
16387;SDS011;8303;53.446;9.988;2022-08-03T17:34:41;63.78;;;60.15;;
16387;SDS011;8303;53.446;9.988;2022-08-03T17:37:09;59.63;;;56.13;;
16387;SDS011;8303;53.446;9.988;2022-08-03T17:39:37;57.05;;;53.65;;
16387;SDS011;8303;53.446;9.988;2022-08-03T17:42:06;64.20;;;60.22;;
16387;SDS011;8303;53.446;9.988;2022-08-03T17:44:33;58.40;;;54.88;;
16387;SDS011;8303;53.446;9.988;2022-08-03T17:47:02;62.53;;;59.00;;
16387;SDS011;8303;53.446;9.988;2022-08-03T17:49:30;66.53;;;62.78;;
16387;SDS011;8303;53.446;9.988;2022-08-03T17:51:58;65.82;;;61.90;;
16387;SDS011;8303;53.446;9.988;2022-08-03T17:54:29;63.83;;;60.38;;
16387;SDS011;8303;53.446;9.988;2022-08-03T17:57:02;68.75;;;64.80;;
16387;SDS011;8303;53.446;9.988;2022-08-03T17:59:33;73.13;;;68.78;;
16387;SDS011;8303;53.446;9.988;2022-08-03T18:02:11;95.05;;;90.13;;
16387;SDS011;8303;53.446;9.988;2022-08-03T18:05:16;114.07;;;108.03;;
16387;SDS011;8303;53.446;9.988;2022-08-03T18:07:46;176.32;;;167.10;;
16387;SDS011;8303;53.446;9.988;2022-08-03T18:10:15;200.25;;;189.40;;
16387;SDS011;8303;53.446;9.988;2022-08-03T18:12:49;163.15;;;154.63;;
16387;SDS011;8303;53.446;9.988;2022-08-03T18:15:22;160.38;;;151.98;;
16387;SDS011;8303;53.446;9.988;2022-08-03T18:17:56;179.00;;;169.23;;
16387;SDS011;8303;53.446;9.988;2022-08-03T18:20:29;177.30;;;167.88;;
16387;SDS011;8303;53.446;9.988;2022-08-03T18:22:57;168.88;;;159.90;;
16387;SDS011;8303;53.446;9.988;2022-08-03T18:25:25;177.85;;;168.68;;
16387;SDS011;8303;53.446;9.988;2022-08-03T18:27:52;193.35;;;183.38;;
16387;SDS011;8303;53.446;9.988;2022-08-03T18:30:21;225.02;;;213.43;;
16387;SDS011;8303;53.446;9.988;2022-08-03T18:32:48;237.82;;;225.10;;
16387;SDS011;8303;53.446;9.988;2022-08-03T18:35:16;185.85;;;176.15;;
16387;SDS011;8303;53.446;9.988;2022-08-03T18:37:45;188.25;;;178.40;;
16387;SDS011;8303;53.446;9.988;2022-08-03T18:40:14;164.65;;;155.88;;
16387;SDS011;8303;53.446;9.988;2022-08-03T18:42:43;158.68;;;150.27;;
16387;SDS011;8303;53.446;9.988;2022-08-03T18:45:10;189.52;;;179.63;;
16387;SDS011;8303;53.446;9.988;2022-08-03T18:47:42;188.40;;;178.23;;
16387;SDS011;8303;53.446;9.988;2022-08-03T18:50:18;203.10;;;192.65;;
16387;SDS011;8303;53.446;9.988;2022-08-03T18:52:53;161.48;;;152.85;;
16387;SDS011;8303;53.446;9.988;2022-08-03T18:55:28;108.70;;;102.78;;
16387;SDS011;8303;53.446;9.988;2022-08-03T18:57:57;82.05;;;77.47;;
16387;SDS011;8303;53.446;9.988;2022-08-03T19:00:33;74.50;;;70.43;;
16387;SDS011;8303;53.446;9.988;2022-08-03T19:03:02;81.07;;;76.50;;
16387;SDS011;8303;53.446;9.988;2022-08-03T19:05:40;73.68;;;69.60;;
16387;SDS011;8303;53.446;9.988;2022-08-03T19:08:11;77.72;;;73.22;;
16387;SDS011;8303;53.446;9.988;2022-08-03T19:10:43;142.00;;;133.82;;
16387;SDS011;8303;53.446;9.988;2022-08-03T19:13:16;111.80;;;105.13;;
16387;SDS011;8303;53.446;9.988;2022-08-03T19:15:48;344.73;;;324.02;;
16387;SDS011;8303;53.446;9.988;2022-08-03T19:18:16;175.60;;;165.80;;
16387;SDS011;8303;53.446;9.988;2022-08-03T19:20:46;249.20;;;235.43;;
16387;SDS011;8303;53.446;9.988;2022-08-03T19:23:19;630.38;;;586.78;;
16387;SDS011;8303;53.446;9.988;2022-08-03T19:25:48;497.70;;;466.73;;
16387;SDS011;8303;53.446;9.988;2022-08-03T19:28:16;622.30;;;580.05;;
16387;SDS011;8303;53.446;9.988;2022-08-03T19:30:43;466.90;;;438.25;;
16387;SDS011;8303;53.446;9.988;2022-08-03T19:33:13;513.40;;;480.48;;
16387;SDS011;8303;53.446;9.988;2022-08-03T19:35:41;414.48;;;389.65;;
16387;SDS011;8303;53.446;9.988;2022-08-03T19:38:10;450.65;;;422.80;;
16387;SDS011;8303;53.446;9.988;2022-08-03T19:40:40;315.88;;;298.13;;